sensor_id;sensor_type;location;lat;lon;timestamp;pressure;altitude;pressure_sealevel;temperature
42197;BMP280;27866;48.146;17.098;2023-06-14T00:01:06;99258.56;;;18.35
42197;BMP280;27866;48.146;17.098;2023-06-14T00:05:18;99260.84;;;18.38
42197;BMP280;27866;48.146;17.098;2023-06-14T00:09:29;99263.16;;;18.41
42197;BMP280;27866;48.146;17.098;2023-06-14T00:13:40;99264.78;;;18.42
42197;BMP280;27866;48.146;17.098;2023-06-14T00:17:52;99265.13;;;18.47
42197;BMP280;27866;48.146;17.098;2023-06-14T00:22:03;99264.28;;;18.46
42197;BMP280;27866;48.146;17.098;2023-06-14T00:26:14;99265.44;;;18.52
42197;BMP280;27866;48.146;17.098;2023-06-14T00:30:27;99260.06;;;18.61
42197;BMP280;27866;48.146;17.098;2023-06-14T00:34:41;99260.22;;;18.67
42197;BMP280;27866;48.146;17.098;2023-06-14T00:38:52;99257.09;;;18.71
42197;BMP280;27866;48.146;17.098;2023-06-14T00:43:04;99253.84;;;18.70
42197;BMP280;27866;48.146;17.098;2023-06-14T00:47:15;99251.38;;;18.68
42197;BMP280;27866;48.146;17.098;2023-06-14T00:51:26;99245.13;;;18.69
42197;BMP280;27866;48.146;17.098;2023-06-14T00:55:38;99245.13;;;18.69
42197;BMP280;27866;48.146;17.098;2023-06-14T00:59:49;99242.03;;;18.66
42197;BMP280;27866;48.146;17.098;2023-06-14T01:04:00;99242.53;;;18.61
42197;BMP280;27866;48.146;17.098;2023-06-14T01:12:57;99236.94;;;18.49
42197;BMP280;27866;48.146;17.098;2023-06-14T01:17:10;99231.22;;;18.45
42197;BMP280;27866;48.146;17.098;2023-06-14T01:21:27;99237.75;;;18.49
42197;BMP280;27866;48.146;17.098;2023-06-14T01:25:39;99233.31;;;18.50
42197;BMP280;27866;48.146;17.098;2023-06-14T01:29:51;99230.56;;;18.43
42197;BMP280;27866;48.146;17.098;2023-06-14T01:34:07;99228.59;;;18.38
42197;BMP280;27866;48.146;17.098;2023-06-14T01:38:21;99226.09;;;18.36
42197;BMP280;27866;48.146;17.098;2023-06-14T01:42:34;99231.34;;;18.36
42197;BMP280;27866;48.146;17.098;2023-06-14T01:46:47;99233.00;;;18.37
42197;BMP280;27866;48.146;17.098;2023-06-14T01:50:59;99225.31;;;18.36
42197;BMP280;27866;48.146;17.098;2023-06-14T01:55:10;99231.03;;;18.39
42197;BMP280;27866;48.146;17.098;2023-06-14T01:59:23;99230.88;;;18.41
42197;BMP280;27866;48.146;17.098;2023-06-14T02:03:34;99229.06;;;18.41
42197;BMP280;27866;48.146;17.098;2023-06-14T02:07:45;99225.81;;;18.39
42197;BMP280;27866;48.146;17.098;2023-06-14T02:12:01;99229.91;;;18.42
42197;BMP280;27866;48.146;17.098;2023-06-14T02:16:12;99225.16;;;18.45
42197;BMP280;27866;48.146;17.098;2023-06-14T02:20:23;99222.50;;;18.53
42197;BMP280;27866;48.146;17.098;2023-06-14T02:24:34;99213.84;;;18.60
42197;BMP280;27866;48.146;17.098;2023-06-14T02:28:46;99222.38;;;18.62
42197;BMP280;27866;48.146;17.098;2023-06-14T02:32:57;99220.22;;;18.65
42197;BMP280;27866;48.146;17.098;2023-06-14T02:37:09;99227.13;;;18.66
42197;BMP280;27866;48.146;17.098;2023-06-14T02:41:21;99222.03;;;18.65
42197;BMP280;27866;48.146;17.098;2023-06-14T02:45:32;99237.28;;;18.61
42197;BMP280;27866;48.146;17.098;2023-06-14T02:49:44;99236.44;;;18.61
42197;BMP280;27866;48.146;17.098;2023-06-14T02:53:59;99242.53;;;18.61
42197;BMP280;27866;48.146;17.098;2023-06-14T02:58:10;99238.28;;;18.60
42197;BMP280;27866;48.146;17.098;2023-06-14T03:02:21;99240.56;;;18.63
42197;BMP280;27866;48.146;17.098;2023-06-14T03:06:32;99247.75;;;18.61
42197;BMP280;27866;48.146;17.098;2023-06-14T03:10:48;99259.38;;;18.67
42197;BMP280;27866;48.146;17.098;2023-06-14T03:15:00;99255.97;;;18.74
42197;BMP280;27866;48.146;17.098;2023-06-14T03:19:19;99251.03;;;18.79
42197;BMP280;27866;48.146;17.098;2023-06-14T03:23:30;99249.72;;;18.83
42197;BMP280;27866;48.146;17.098;2023-06-14T03:27:42;99258.72;;;18.88
42197;BMP280;27866;48.146;17.098;2023-06-14T03:32:00;99259.84;;;18.93
42197;BMP280;27866;48.146;17.098;2023-06-14T03:36:19;99267.88;;;19.00
42197;BMP280;27866;48.146;17.098;2023-06-14T03:40:30;99283.44;;;19.01
42197;BMP280;27866;48.146;17.098;2023-06-14T03:44:46;99275.09;;;18.98
42197;BMP280;27866;48.146;17.098;2023-06-14T03:48:58;99276.88;;;18.97
42197;BMP280;27866;48.146;17.098;2023-06-14T03:53:10;99284.28;;;18.94
42197;BMP280;27866;48.146;17.098;2023-06-14T03:57:25;99283.47;;;18.85
42197;BMP280;27866;48.146;17.098;2023-06-14T04:01:36;99290.69;;;18.84
42197;BMP280;27866;48.146;17.098;2023-06-14T04:05:48;99292.81;;;18.80
42197;BMP280;27866;48.146;17.098;2023-06-14T04:10:02;99297.09;;;18.81
42197;BMP280;27866;48.146;17.098;2023-06-14T04:14:13;99309.88;;;18.84
42197;BMP280;27866;48.146;17.098;2023-06-14T04:18:24;99317.25;;;18.88
42197;BMP280;27866;48.146;17.098;2023-06-14T04:22:36;99329.72;;;18.94
42197;BMP280;27866;48.146;17.098;2023-06-14T04:26:49;99346.78;;;18.75
42197;BMP280;27866;48.146;17.098;2023-06-14T04:31:03;99356.38;;;18.36
42197;BMP280;27866;48.146;17.098;2023-06-14T04:35:16;99362.56;;;18.27
42197;BMP280;27866;48.146;17.098;2023-06-14T04:39:29;99366.97;;;18.11
42197;BMP280;27866;48.146;17.098;2023-06-14T04:43:42;99372.53;;;18.08
42197;BMP280;27866;48.146;17.098;2023-06-14T04:47:54;99383.38;;;18.13
42197;BMP280;27866;48.146;17.098;2023-06-14T04:52:08;99389.59;;;18.20
42197;BMP280;27866;48.146;17.098;2023-06-14T04:56:24;99388.63;;;18.21
42197;BMP280;27866;48.146;17.098;2023-06-14T05:00:38;99385.41;;;18.34
42197;BMP280;27866;48.146;17.098;2023-06-14T05:04:50;99389.47;;;18.37
42197;BMP280;27866;48.146;17.098;2023-06-14T05:09:01;99388.91;;;18.58
42197;BMP280;27866;48.146;17.098;2023-06-14T05:13:13;99390.41;;;18.68
42197;BMP280;27866;48.146;17.098;2023-06-14T05:17:24;99389.25;;;18.86
42197;BMP280;27866;48.146;17.098;2023-06-14T05:21:36;99381.19;;;19.03
42197;BMP280;27866;48.146;17.098;2023-06-14T05:25:48;99392.66;;;19.25
42197;BMP280;27866;48.146;17.098;2023-06-14T05:29:59;99388.06;;;19.43
42197;BMP280;27866;48.146;17.098;2023-06-14T05:34:10;99394.78;;;19.60
42197;BMP280;27866;48.146;17.098;2023-06-14T05:38:21;99390.13;;;19.78
42197;BMP280;27866;48.146;17.098;2023-06-14T05:42:33;99391.66;;;19.57
42197;BMP280;27866;48.146;17.098;2023-06-14T05:46:44;99398.78;;;19.86
42197;BMP280;27866;48.146;17.098;2023-06-14T05:50:55;99396.03;;;20.25
42197;BMP280;27866;48.146;17.098;2023-06-14T05:55:06;99401.22;;;20.62
42197;BMP280;27866;48.146;17.098;2023-06-14T05:59:18;99399.63;;;20.75
42197;BMP280;27866;48.146;17.098;2023-06-14T06:03:29;99399.44;;;21.06
42197;BMP280;27866;48.146;17.098;2023-06-14T06:07:40;99393.59;;;21.10
42197;BMP280;27866;48.146;17.098;2023-06-14T06:11:51;99400.16;;;20.92
42197;BMP280;27866;48.146;17.098;2023-06-14T06:16:03;99399.28;;;21.21
42197;BMP280;27866;48.146;17.098;2023-06-14T06:20:14;99405.09;;;21.31
42197;BMP280;27866;48.146;17.098;2023-06-14T06:24:25;99396.50;;;21.37
42197;BMP280;27866;48.146;17.098;2023-06-14T06:28:36;99400.34;;;21.62
42197;BMP280;27866;48.146;17.098;2023-06-14T06:32:47;99412.09;;;21.88
42197;BMP280;27866;48.146;17.098;2023-06-14T06:36:58;99417.84;;;22.06
42197;BMP280;27866;48.146;17.098;2023-06-14T06:41:10;99409.53;;;22.36
42197;BMP280;27866;48.146;17.098;2023-06-14T06:45:21;99408.97;;;22.41
42197;BMP280;27866;48.146;17.098;2023-06-14T06:49:33;99403.47;;;22.70
42197;BMP280;27866;48.146;17.098;2023-06-14T06:53:51;99417.84;;;22.88
42197;BMP280;27866;48.146;17.098;2023-06-14T06:58:02;99403.13;;;23.00
42197;BMP280;27866;48.146;17.098;2023-06-14T07:02:16;99406.16;;;23.37
42197;BMP280;27866;48.146;17.098;2023-06-14T07:06:27;99406.09;;;23.78
42197;BMP280;27866;48.146;17.098;2023-06-14T07:10:38;99414.19;;;24.49
42197;BMP280;27866;48.146;17.098;2023-06-14T07:14:49;99406.50;;;24.60
42197;BMP280;27866;48.146;17.098;2023-06-14T07:19:02;99406.97;;;24.76
42197;BMP280;27866;48.146;17.098;2023-06-14T07:23:13;99407.75;;;24.70
42197;BMP280;27866;48.146;17.098;2023-06-14T07:27:24;99407.06;;;25.20
42197;BMP280;27866;48.146;17.098;2023-06-14T07:31:36;99404.47;;;26.38
42197;BMP280;27866;48.146;17.098;2023-06-14T07:35:47;99404.13;;;26.09
42197;BMP280;27866;48.146;17.098;2023-06-14T07:40:00;99399.28;;;26.61
42197;BMP280;27866;48.146;17.098;2023-06-14T07:44:11;99414.81;;;26.58
42197;BMP280;27866;48.146;17.098;2023-06-14T07:48:23;99399.69;;;27.25
42197;BMP280;27866;48.146;17.098;2023-06-14T07:52:34;99405.41;;;25.94
42197;BMP280;27866;48.146;17.098;2023-06-14T07:56:45;99418.88;;;25.11
42197;BMP280;27866;48.146;17.098;2023-06-14T08:00:56;99415.84;;;25.33
42197;BMP280;27866;48.146;17.098;2023-06-14T08:05:09;99414.00;;;25.77
42197;BMP280;27866;48.146;17.098;2023-06-14T08:09:21;99413.41;;;26.49
42197;BMP280;27866;48.146;17.098;2023-06-14T08:13:33;99425.13;;;32.30
42197;BMP280;27866;48.146;17.098;2023-06-14T08:17:44;99406.13;;;31.20
42197;BMP280;27866;48.146;17.098;2023-06-14T08:21:55;99409.78;;;28.63
42197;BMP280;27866;48.146;17.098;2023-06-14T08:26:07;99404.31;;;27.35
42197;BMP280;27866;48.146;17.098;2023-06-14T08:30:18;99417.44;;;25.97
42197;BMP280;27866;48.146;17.098;2023-06-14T08:34:29;99407.97;;;27.41
42197;BMP280;27866;48.146;17.098;2023-06-14T08:38:40;99409.66;;;27.35
42197;BMP280;27866;48.146;17.098;2023-06-14T08:42:54;99413.97;;;27.00
42197;BMP280;27866;48.146;17.098;2023-06-14T08:47:06;99421.81;;;26.83
42197;BMP280;27866;48.146;17.098;2023-06-14T08:51:21;99428.72;;;26.96
42197;BMP280;27866;48.146;17.098;2023-06-14T08:55:33;99429.78;;;26.95
42197;BMP280;27866;48.146;17.098;2023-06-14T08:59:47;99425.00;;;27.03
42197;BMP280;27866;48.146;17.098;2023-06-14T09:04:00;99421.59;;;28.15
42197;BMP280;27866;48.146;17.098;2023-06-14T09:08:11;99423.94;;;28.64
42197;BMP280;27866;48.146;17.098;2023-06-14T09:12:22;99429.53;;;28.21
42197;BMP280;27866;48.146;17.098;2023-06-14T09:16:33;99435.91;;;30.14
42197;BMP280;27866;48.146;17.098;2023-06-14T09:20:44;99418.94;;;30.31
42197;BMP280;27866;48.146;17.098;2023-06-14T09:24:58;99442.25;;;32.29
42197;BMP280;27866;48.146;17.098;2023-06-14T09:29:09;99439.81;;;37.05
42197;BMP280;27866;48.146;17.098;2023-06-14T09:33:20;99441.75;;;37.47
42197;BMP280;27866;48.146;17.098;2023-06-14T09:37:33;99429.47;;;36.65
42197;BMP280;27866;48.146;17.098;2023-06-14T09:41:45;99446.81;;;36.21
42197;BMP280;27866;48.146;17.098;2023-06-14T09:45:56;99440.50;;;41.30
42197;BMP280;27866;48.146;17.098;2023-06-14T09:50:07;99433.69;;;40.54
42197;BMP280;27866;48.146;17.098;2023-06-14T09:54:22;99414.69;;;36.48
42197;BMP280;27866;48.146;17.098;2023-06-14T09:58:34;99449.16;;;34.16
42197;BMP280;27866;48.146;17.098;2023-06-14T10:02:49;99442.56;;;39.31
42197;BMP280;27866;48.146;17.098;2023-06-14T10:07:04;99431.94;;;43.10
42197;BMP280;27866;48.146;17.098;2023-06-14T10:11:16;99429.94;;;44.78
42197;BMP280;27866;48.146;17.098;2023-06-14T10:20:26;99426.91;;;45.16
42197;BMP280;27866;48.146;17.098;2023-06-14T10:24:44;99420.03;;;41.45
42197;BMP280;27866;48.146;17.098;2023-06-14T10:29:00;99419.78;;;39.67
42197;BMP280;27866;48.146;17.098;2023-06-14T10:33:12;99421.06;;;39.16
42197;BMP280;27866;48.146;17.098;2023-06-14T10:37:26;99409.75;;;42.27
42197;BMP280;27866;48.146;17.098;2023-06-14T10:41:38;99404.31;;;43.03
42197;BMP280;27866;48.146;17.098;2023-06-14T10:46:15;99406.13;;;41.47
42197;BMP280;27866;48.146;17.098;2023-06-14T10:50:27;99395.19;;;38.88
42197;BMP280;27866;48.146;17.098;2023-06-14T10:59:12;99381.16;;;31.79
42197;BMP280;27866;48.146;17.098;2023-06-14T11:03:50;99384.00;;;31.25
42197;BMP280;27866;48.146;17.098;2023-06-14T11:08:23;99374.19;;;30.87
42197;BMP280;27866;48.146;17.098;2023-06-14T11:12:37;99375.22;;;30.86
42197;BMP280;27866;48.146;17.098;2023-06-14T11:16:50;99390.03;;;30.28
42197;BMP280;27866;48.146;17.098;2023-06-14T11:21:03;99387.34;;;29.61
42197;BMP280;27866;48.146;17.098;2023-06-14T11:25:14;99397.31;;;29.04
42197;BMP280;27866;48.146;17.098;2023-06-14T11:29:25;99392.19;;;28.74
42197;BMP280;27866;48.146;17.098;2023-06-14T11:33:39;99386.31;;;28.54
42197;BMP280;27866;48.146;17.098;2023-06-14T11:37:55;99374.50;;;28.16
42197;BMP280;27866;48.146;17.098;2023-06-14T11:42:15;99378.94;;;28.21
42197;BMP280;27866;48.146;17.098;2023-06-14T11:46:26;99382.97;;;28.87
42197;BMP280;27866;48.146;17.098;2023-06-14T11:50:37;99371.41;;;33.70
42197;BMP280;27866;48.146;17.098;2023-06-14T11:54:49;99365.91;;;31.47
42197;BMP280;27866;48.146;17.098;2023-06-14T11:59:03;99368.09;;;29.93
42197;BMP280;27866;48.146;17.098;2023-06-14T12:03:14;99374.03;;;29.83
42197;BMP280;27866;48.146;17.098;2023-06-14T12:07:25;99371.31;;;30.39
42197;BMP280;27866;48.146;17.098;2023-06-14T12:11:37;99367.06;;;30.16
42197;BMP280;27866;48.146;17.098;2023-06-14T12:15:54;99365.19;;;29.72
42197;BMP280;27866;48.146;17.098;2023-06-14T12:20:07;99367.72;;;29.22
42197;BMP280;27866;48.146;17.098;2023-06-14T12:24:21;99366.72;;;29.79
42197;BMP280;27866;48.146;17.098;2023-06-14T12:28:40;99363.13;;;30.56
42197;BMP280;27866;48.146;17.098;2023-06-14T12:32:51;99367.78;;;36.20
42197;BMP280;27866;48.146;17.098;2023-06-14T12:37:02;99372.22;;;39.88
42197;BMP280;27866;48.146;17.098;2023-06-14T12:41:14;99372.50;;;42.44
42197;BMP280;27866;48.146;17.098;2023-06-14T12:45:26;99364.63;;;42.05
42197;BMP280;27866;48.146;17.098;2023-06-14T12:49:38;99356.28;;;36.76
42197;BMP280;27866;48.146;17.098;2023-06-14T12:53:49;99362.56;;;34.09
42197;BMP280;27866;48.146;17.098;2023-06-14T12:58:01;99364.19;;;37.47
42197;BMP280;27866;48.146;17.098;2023-06-14T13:02:16;99365.00;;;37.06
42197;BMP280;27866;48.146;17.098;2023-06-14T13:06:28;99343.94;;;40.19
42197;BMP280;27866;48.146;17.098;2023-06-14T13:10:40;99343.59;;;35.77
42197;BMP280;27866;48.146;17.098;2023-06-14T13:14:51;99356.00;;;39.52
42197;BMP280;27866;48.146;17.098;2023-06-14T13:19:02;99343.84;;;41.88
42197;BMP280;27866;48.146;17.098;2023-06-14T13:23:15;99339.44;;;42.67
42197;BMP280;27866;48.146;17.098;2023-06-14T13:27:27;99345.69;;;42.68
42197;BMP280;27866;48.146;17.098;2023-06-14T13:31:38;99339.28;;;42.34
42197;BMP280;27866;48.146;17.098;2023-06-14T13:35:49;99334.94;;;41.74
42197;BMP280;27866;48.146;17.098;2023-06-14T13:40:04;99333.22;;;41.78
42197;BMP280;27866;48.146;17.098;2023-06-14T13:44:16;99334.25;;;42.57
42197;BMP280;27866;48.146;17.098;2023-06-14T13:48:29;99334.22;;;43.20
42197;BMP280;27866;48.146;17.098;2023-06-14T13:52:40;99327.06;;;44.01
42197;BMP280;27866;48.146;17.098;2023-06-14T13:56:51;99319.91;;;43.80
42197;BMP280;27866;48.146;17.098;2023-06-14T14:01:02;99329.34;;;44.35
42197;BMP280;27866;48.146;17.098;2023-06-14T14:05:13;99319.25;;;43.67
42197;BMP280;27866;48.146;17.098;2023-06-14T14:09:25;99328.47;;;40.07
42197;BMP280;27866;48.146;17.098;2023-06-14T14:13:36;99311.22;;;38.24
42197;BMP280;27866;48.146;17.098;2023-06-14T14:17:47;99326.81;;;34.73
42197;BMP280;27866;48.146;17.098;2023-06-14T14:21:58;99336.19;;;37.94
42197;BMP280;27866;48.146;17.098;2023-06-14T14:26:09;99328.09;;;39.51
42197;BMP280;27866;48.146;17.098;2023-06-14T14:30:21;99321.94;;;39.46
42197;BMP280;27866;48.146;17.098;2023-06-14T14:34:34;99321.97;;;37.84
42197;BMP280;27866;48.146;17.098;2023-06-14T14:38:45;99321.66;;;36.31
42197;BMP280;27866;48.146;17.098;2023-06-14T14:42:57;99317.19;;;35.01
42197;BMP280;27866;48.146;17.098;2023-06-14T14:47:08;99308.75;;;33.29
42197;BMP280;27866;48.146;17.098;2023-06-14T14:51:20;99314.38;;;32.09
42197;BMP280;27866;48.146;17.098;2023-06-14T14:55:31;99315.38;;;31.35
42197;BMP280;27866;48.146;17.098;2023-06-14T14:59:45;99306.28;;;30.50
42197;BMP280;27866;48.146;17.098;2023-06-14T15:03:56;99319.38;;;30.35
42197;BMP280;27866;48.146;17.098;2023-06-14T15:08:07;99318.59;;;30.23
42197;BMP280;27866;48.146;17.098;2023-06-14T15:12:22;99305.97;;;29.97
42197;BMP280;27866;48.146;17.098;2023-06-14T15:16:34;99312.84;;;29.82
42197;BMP280;27866;48.146;17.098;2023-06-14T15:20:45;99309.34;;;29.59
42197;BMP280;27866;48.146;17.098;2023-06-14T15:24:56;99303.50;;;29.06
42197;BMP280;27866;48.146;17.098;2023-06-14T15:29:07;99305.94;;;29.08
42197;BMP280;27866;48.146;17.098;2023-06-14T15:33:18;99306.41;;;29.05
42197;BMP280;27866;48.146;17.098;2023-06-14T15:37:29;99303.44;;;29.35
42197;BMP280;27866;48.146;17.098;2023-06-14T15:41:40;99301.00;;;29.78
42197;BMP280;27866;48.146;17.098;2023-06-14T15:45:51;99298.81;;;29.75
42197;BMP280;27866;48.146;17.098;2023-06-14T15:50:03;99302.16;;;29.15
42197;BMP280;27866;48.146;17.098;2023-06-14T15:54:15;99313.31;;;28.84
42197;BMP280;27866;48.146;17.098;2023-06-14T15:58:27;99314.44;;;28.65
42197;BMP280;27866;48.146;17.098;2023-06-14T16:02:38;99316.59;;;28.40
42197;BMP280;27866;48.146;17.098;2023-06-14T16:06:49;99319.00;;;27.95
42197;BMP280;27866;48.146;17.098;2023-06-14T16:11:00;99325.72;;;27.80
42197;BMP280;27866;48.146;17.098;2023-06-14T16:15:11;99321.22;;;27.63
42197;BMP280;27866;48.146;17.098;2023-06-14T16:19:22;99323.63;;;27.47
42197;BMP280;27866;48.146;17.098;2023-06-14T16:23:34;99328.34;;;27.46
42197;BMP280;27866;48.146;17.098;2023-06-14T16:27:45;99335.41;;;27.92
42197;BMP280;27866;48.146;17.098;2023-06-14T16:31:57;99329.88;;;27.94
42197;BMP280;27866;48.146;17.098;2023-06-14T16:36:08;99329.25;;;27.57
42197;BMP280;27866;48.146;17.098;2023-06-14T16:40:19;99337.59;;;27.37
42197;BMP280;27866;48.146;17.098;2023-06-14T16:44:30;99342.31;;;27.11
42197;BMP280;27866;48.146;17.098;2023-06-14T16:48:41;99346.16;;;26.85
42197;BMP280;27866;48.146;17.098;2023-06-14T16:52:52;99342.56;;;26.73
42197;BMP280;27866;48.146;17.098;2023-06-14T16:57:03;99342.66;;;26.61
42197;BMP280;27866;48.146;17.098;2023-06-14T17:01:15;99351.56;;;26.43
42197;BMP280;27866;48.146;17.098;2023-06-14T17:05:26;99365.69;;;26.37
42197;BMP280;27866;48.146;17.098;2023-06-14T17:09:37;99363.47;;;26.28
42197;BMP280;27866;48.146;17.098;2023-06-14T17:13:49;99365.47;;;26.32
42197;BMP280;27866;48.146;17.098;2023-06-14T17:18:00;99374.19;;;26.51
42197;BMP280;27866;48.146;17.098;2023-06-14T17:22:11;99380.63;;;26.68
42197;BMP280;27866;48.146;17.098;2023-06-14T17:26:22;99382.16;;;26.94
42197;BMP280;27866;48.146;17.098;2023-06-14T17:30:34;99393.84;;;27.17
42197;BMP280;27866;48.146;17.098;2023-06-14T17:34:45;99387.97;;;27.32
42197;BMP280;27866;48.146;17.098;2023-06-14T17:38:56;99392.56;;;27.19
42197;BMP280;27866;48.146;17.098;2023-06-14T17:43:07;99394.28;;;27.07
42197;BMP280;27866;48.146;17.098;2023-06-14T17:47:18;99396.81;;;26.96
42197;BMP280;27866;48.146;17.098;2023-06-14T17:51:31;99396.75;;;26.73
42197;BMP280;27866;48.146;17.098;2023-06-14T17:55:42;99406.13;;;26.39
42197;BMP280;27866;48.146;17.098;2023-06-14T17:59:53;99411.06;;;26.16
42197;BMP280;27866;48.146;17.098;2023-06-14T18:04:06;99402.56;;;25.83
42197;BMP280;27866;48.146;17.098;2023-06-14T18:08:17;99419.94;;;25.48
42197;BMP280;27866;48.146;17.098;2023-06-14T18:12:29;99416.25;;;25.24
42197;BMP280;27866;48.146;17.098;2023-06-14T18:16:40;99421.69;;;24.97
42197;BMP280;27866;48.146;17.098;2023-06-14T18:20:51;99430.19;;;24.74
42197;BMP280;27866;48.146;17.098;2023-06-14T18:25:03;99434.13;;;24.45
42197;BMP280;27866;48.146;17.098;2023-06-14T18:29:14;99436.63;;;24.13
42197;BMP280;27866;48.146;17.098;2023-06-14T18:33:26;99442.78;;;23.94
42197;BMP280;27866;48.146;17.098;2023-06-14T18:37:37;99447.63;;;23.84
42197;BMP280;27866;48.146;17.098;2023-06-14T18:41:48;99454.38;;;23.66
42197;BMP280;27866;48.146;17.098;2023-06-14T18:45:59;99457.91;;;23.52
42197;BMP280;27866;48.146;17.098;2023-06-14T18:50:10;99458.34;;;23.29
42197;BMP280;27866;48.146;17.098;2023-06-14T18:54:23;99473.41;;;23.15
42197;BMP280;27866;48.146;17.098;2023-06-14T18:58:34;99483.31;;;22.93
42197;BMP280;27866;48.146;17.098;2023-06-14T19:02:45;99476.00;;;22.74
42197;BMP280;27866;48.146;17.098;2023-06-14T19:06:57;99490.69;;;22.63
42197;BMP280;27866;48.146;17.098;2023-06-14T19:11:08;99494.06;;;22.57
42197;BMP280;27866;48.146;17.098;2023-06-14T19:15:19;99501.69;;;22.52
42197;BMP280;27866;48.146;17.098;2023-06-14T19:19:30;99508.34;;;22.48
42197;BMP280;27866;48.146;17.098;2023-06-14T19:23:41;99504.63;;;22.43
42197;BMP280;27866;48.146;17.098;2023-06-14T19:27:53;99513.31;;;22.29
42197;BMP280;27866;48.146;17.098;2023-06-14T19:32:05;99522.63;;;22.11
42197;BMP280;27866;48.146;17.098;2023-06-14T19:36:17;99534.34;;;21.95
42197;BMP280;27866;48.146;17.098;2023-06-14T19:40:28;99526.38;;;21.81
42197;BMP280;27866;48.146;17.098;2023-06-14T19:44:39;99530.78;;;21.66
42197;BMP280;27866;48.146;17.098;2023-06-14T19:48:50;99534.47;;;21.58
42197;BMP280;27866;48.146;17.098;2023-06-14T19:53:01;99528.59;;;21.48
42197;BMP280;27866;48.146;17.098;2023-06-14T19:57:12;99531.50;;;21.39
42197;BMP280;27866;48.146;17.098;2023-06-14T20:01:25;99539.63;;;21.30
42197;BMP280;27866;48.146;17.098;2023-06-14T20:05:37;99538.25;;;21.19
42197;BMP280;27866;48.146;17.098;2023-06-14T20:09:49;99534.81;;;21.11
42197;BMP280;27866;48.146;17.098;2023-06-14T20:14:01;99536.88;;;21.02
42197;BMP280;27866;48.146;17.098;2023-06-14T20:18:12;99537.88;;;20.93
42197;BMP280;27866;48.146;17.098;2023-06-14T20:22:23;99535.56;;;20.90
42197;BMP280;27866;48.146;17.098;2023-06-14T20:26:34;99536.41;;;20.90
42197;BMP280;27866;48.146;17.098;2023-06-14T20:30:46;99531.31;;;20.97
42197;BMP280;27866;48.146;17.098;2023-06-14T20:34:57;99528.34;;;20.92
42197;BMP280;27866;48.146;17.098;2023-06-14T20:39:08;99531.31;;;20.89
42197;BMP280;27866;48.146;17.098;2023-06-14T20:43:19;99537.09;;;20.85
42197;BMP280;27866;48.146;17.098;2023-06-14T20:47:30;99528.09;;;20.79
42197;BMP280;27866;48.146;17.098;2023-06-14T20:51:41;99526.66;;;20.69
42197;BMP280;27866;48.146;17.098;2023-06-14T20:55:52;99527.22;;;20.57
42197;BMP280;27866;48.146;17.098;2023-06-14T21:00:04;99520.31;;;20.48
42197;BMP280;27866;48.146;17.098;2023-06-14T21:04:21;99522.19;;;20.40
42197;BMP280;27866;48.146;17.098;2023-06-14T21:08:32;99520.25;;;20.34
42197;BMP280;27866;48.146;17.098;2023-06-14T21:12:43;99524.69;;;20.26
42197;BMP280;27866;48.146;17.098;2023-06-14T21:16:54;99521.59;;;20.15
42197;BMP280;27866;48.146;17.098;2023-06-14T21:21:06;99522.25;;;20.09
42197;BMP280;27866;48.146;17.098;2023-06-14T21:25:17;99533.44;;;20.03
42197;BMP280;27866;48.146;17.098;2023-06-14T21:29:28;99523.88;;;20.02
42197;BMP280;27866;48.146;17.098;2023-06-14T21:33:39;99525.25;;;19.99
42197;BMP280;27866;48.146;17.098;2023-06-14T21:37:50;99518.16;;;19.91
42197;BMP280;27866;48.146;17.098;2023-06-14T21:42:02;99522.28;;;19.86
42197;BMP280;27866;48.146;17.098;2023-06-14T21:46:13;99518.38;;;19.74
42197;BMP280;27866;48.146;17.098;2023-06-14T21:50:24;99529.88;;;19.66
42197;BMP280;27866;48.146;17.098;2023-06-14T21:54:35;99535.31;;;19.57
42197;BMP280;27866;48.146;17.098;2023-06-14T21:58:46;99534.81;;;19.53
42197;BMP280;27866;48.146;17.098;2023-06-14T22:02:57;99542.03;;;19.44
42197;BMP280;27866;48.146;17.098;2023-06-14T22:07:09;99546.91;;;19.39
42197;BMP280;27866;48.146;17.098;2023-06-14T22:11:25;99546.78;;;19.40
42197;BMP280;27866;48.146;17.098;2023-06-14T22:15:40;99546.91;;;19.39
42197;BMP280;27866;48.146;17.098;2023-06-14T22:19:51;99551.38;;;19.30
42197;BMP280;27866;48.146;17.098;2023-06-14T22:24:03;99555.09;;;19.20
42197;BMP280;27866;48.146;17.098;2023-06-14T22:28:14;99548.22;;;19.12
42197;BMP280;27866;48.146;17.098;2023-06-14T22:32:26;99541.13;;;19.04
42197;BMP280;27866;48.146;17.098;2023-06-14T22:36:37;99552.25;;;18.99
42197;BMP280;27866;48.146;17.098;2023-06-14T22:40:48;99544.56;;;18.97
42197;BMP280;27866;48.146;17.098;2023-06-14T22:44:59;99537.97;;;18.93
42197;BMP280;27866;48.146;17.098;2023-06-14T22:49:11;99542.56;;;18.91
42197;BMP280;27866;48.146;17.098;2023-06-14T22:53:22;99543.91;;;18.95
42197;BMP280;27866;48.146;17.098;2023-06-14T22:57:35;99540.47;;;18.95
42197;BMP280;27866;48.146;17.098;2023-06-14T23:01:47;99542.44;;;18.93
42197;BMP280;27866;48.146;17.098;2023-06-14T23:06:04;99537.50;;;18.90
42197;BMP280;27866;48.146;17.098;2023-06-14T23:10:17;99544.06;;;18.94
42197;BMP280;27866;48.146;17.098;2023-06-14T23:14:33;99548.19;;;18.96
42197;BMP280;27866;48.146;17.098;2023-06-14T23:18:45;99543.75;;;18.97
42197;BMP280;27866;48.146;17.098;2023-06-14T23:22:59;99537.84;;;18.95
42197;BMP280;27866;48.146;17.098;2023-06-14T23:27:13;99549.31;;;18.94
42197;BMP280;27866;48.146;17.098;2023-06-14T23:31:24;99547.53;;;18.94
42197;BMP280;27866;48.146;17.098;2023-06-14T23:35:36;99544.91;;;18.94
42197;BMP280;27866;48.146;17.098;2023-06-14T23:39:47;99546.22;;;18.98
42197;BMP280;27866;48.146;17.098;2023-06-14T23:44:01;99546.53;;;18.95
42197;BMP280;27866;48.146;17.098;2023-06-14T23:48:12;99548.31;;;18.87
42197;BMP280;27866;48.146;17.098;2023-06-14T23:52:23;99543.56;;;18.83
42197;BMP280;27866;48.146;17.098;2023-06-14T23:56:35;99543.53;;;18.75
